createdAt,value
2019-02-26T00:01:57.968Z,28.50
2019-02-26T00:04:32.612Z,26.37
2019-02-26T00:07:07.335Z,23.60
2019-02-26T00:09:41.031Z,26.17
2019-02-26T00:12:14.323Z,27.87
2019-02-26T00:14:47.562Z,31.43
2019-02-26T00:17:21.383Z,21.80
2019-02-26T00:19:52.935Z,24.20
2019-02-26T00:22:24.618Z,25.07
2019-02-26T00:24:56.297Z,25.57
2019-02-26T00:27:30.108Z,26.30
2019-02-26T00:30:01.446Z,36.77
2019-02-26T00:32:33.896Z,27.53
2019-02-26T00:35:06.361Z,28.43
2019-02-26T00:37:38.052Z,28.70
2019-02-26T00:40:10.468Z,26.63
2019-02-26T00:42:43.248Z,24.67
2019-02-26T00:45:14.990Z,24.23
2019-02-26T00:47:46.785Z,26.67
2019-02-26T00:50:32.649Z,30.20
2019-02-26T00:53:07.339Z,25.60
2019-02-26T00:55:42.793Z,37.53
2019-02-26T00:58:22.540Z,19.80
2019-02-26T01:00:59.744Z,25.97
2019-02-26T01:03:40.712Z,25.23
2019-02-26T01:06:11.017Z,27.07
2019-02-26T01:08:48.055Z,21.47
2019-02-26T01:11:25.928Z,21.50
2019-02-26T01:14:05.362Z,29.17
2019-02-26T01:16:39.438Z,28.70
2019-02-26T01:19:13.524Z,25.97
2019-02-26T01:21:49.979Z,25.80
2019-02-26T01:24:26.022Z,23.10
2019-02-26T01:27:01.392Z,22.03
2019-02-26T01:29:37.202Z,27.43
2019-02-26T01:32:15.610Z,27.83
2019-02-26T01:35:01.447Z,20.63
2019-02-26T01:37:37.449Z,25.13
2019-02-26T01:40:16.335Z,22.00
2019-02-26T01:42:54.668Z,25.20
2019-02-26T01:45:27.326Z,25.07
2019-02-26T01:48:05.934Z,23.73
2019-02-26T01:50:43.365Z,25.63
2019-02-26T01:53:21.037Z,22.10
2019-02-26T01:55:58.468Z,21.20
2019-02-26T01:58:35.116Z,26.73
2019-02-26T02:01:16.617Z,26.60
2019-02-26T02:03:53.252Z,16.37
2019-02-26T02:06:33.115Z,27.00
2019-02-26T02:09:11.397Z,20.80
2019-02-26T02:12:34.451Z,27.03
2019-02-26T02:15:08.043Z,26.47
2019-02-26T02:17:46.493Z,22.23
2019-02-26T02:20:37.970Z,28.73
2019-02-26T02:23:16.150Z,24.87
2019-02-26T02:25:59.799Z,27.63
2019-02-26T02:28:33.695Z,27.47
2019-02-26T02:31:13.218Z,30.53
2019-02-26T02:33:49.282Z,25.10
2019-02-26T02:36:26.169Z,26.70
2019-02-26T02:38:56.888Z,23.70
2019-02-26T02:41:35.581Z,26.47
2019-02-26T02:44:14.501Z,23.60
2019-02-26T02:46:46.671Z,23.17
2019-02-26T02:49:20.460Z,20.63
2019-02-26T02:51:56.174Z,23.07
2019-02-26T02:54:29.864Z,23.50
2019-02-26T02:57:05.362Z,24.13
2019-02-26T02:59:42.260Z,23.03
2019-02-26T03:02:18.410Z,23.10
2019-02-26T03:04:52.125Z,24.40
2019-02-26T03:07:29.339Z,27.23
2019-02-26T03:10:06.116Z,31.47
2019-02-26T03:12:57.656Z,29.10
2019-02-26T03:15:33.737Z,24.40
2019-02-26T03:18:14.327Z,28.93
2019-02-26T03:20:51.218Z,28.57
2019-02-26T03:23:22.639Z,24.90
2019-02-26T03:25:58.390Z,24.70
2019-02-26T03:28:37.119Z,25.70
2019-02-26T03:31:19.294Z,24.40
2019-02-26T03:33:59.843Z,27.93
2019-02-26T03:36:27.365Z,28.53
2019-02-26T03:39:00.732Z,25.30
2019-02-26T03:41:33.018Z,23.67
2019-02-26T03:44:08.763Z,27.60
2019-02-26T03:46:40.878Z,30.67
2019-02-26T03:49:12.875Z,26.27
2019-02-26T03:51:44.805Z,25.10
2019-02-26T03:54:16.705Z,24.60
2019-02-26T03:56:48.703Z,18.63
2019-02-26T03:59:20.698Z,23.80
2019-02-26T04:01:52.693Z,19.90
2019-02-26T04:04:26.145Z,25.63
2019-02-26T04:06:59.072Z,24.97
2019-02-26T04:09:44.434Z,22.40
2019-02-26T04:12:22.856Z,19.93
2019-02-26T04:14:54.731Z,23.43
2019-02-26T04:17:28.671Z,22.57
2019-02-26T04:20:02.661Z,29.73
2019-02-26T04:22:39.238Z,32.73
2019-02-26T04:25:40.976Z,33.37
2019-02-26T04:28:30.741Z,32.67
2019-02-26T04:31:33.324Z,36.23
2019-02-26T04:34:51.265Z,27.07
2019-02-26T04:37:52.986Z,30.33
2019-02-26T04:41:17.023Z,30.90
2019-02-26T04:44:31.350Z,29.23
2019-02-26T04:47:24.223Z,25.70
2019-02-26T04:49:59.981Z,27.30
2019-02-26T04:52:40.485Z,21.83
2019-02-26T04:55:16.347Z,22.17
2019-02-26T04:57:54.023Z,21.90
2019-02-26T05:00:29.897Z,30.17
2019-02-26T05:03:13.603Z,36.57
2019-02-26T05:05:44.016Z,26.13
2019-02-26T05:08:20.362Z,27.73
2019-02-26T05:10:57.400Z,27.00
2019-02-26T05:13:35.546Z,28.77
2019-02-26T05:16:07.515Z,14.30
2019-02-26T05:18:46.241Z,21.53
2019-02-26T05:21:20.132Z,27.73
2019-02-26T05:23:55.657Z,18.80
2019-02-26T05:26:34.409Z,27.03
2019-02-26T05:29:14.928Z,22.50
2019-02-26T05:31:52.818Z,21.07
2019-02-26T05:34:27.942Z,22.10
2019-02-26T05:37:07.502Z,21.03
2019-02-26T05:39:46.070Z,25.97
2019-02-26T05:42:15.835Z,28.20
2019-02-26T05:44:47.820Z,32.93
2019-02-26T05:47:21.534Z,25.73
2019-02-26T05:49:54.544Z,27.50
2019-02-26T05:52:27.241Z,27.40
2019-02-26T05:55:02.965Z,26.47
2019-02-26T05:57:39.072Z,24.10
2019-02-26T06:00:22.593Z,30.70
2019-02-26T06:02:55.047Z,21.87
2019-02-26T06:05:35.266Z,26.47
2019-02-26T06:08:08.319Z,26.23
2019-02-26T06:10:40.250Z,28.97
2019-02-26T06:13:13.526Z,31.67
2019-02-26T06:15:46.004Z,30.67
2019-02-26T06:18:23.052Z,31.43
2019-02-26T06:21:01.230Z,25.20
2019-02-26T06:23:36.486Z,26.13
2019-02-26T06:26:14.119Z,30.83
2019-02-26T06:28:46.317Z,16.23
2019-02-26T06:31:25.148Z,29.17
2019-02-26T06:33:57.040Z,28.87
2019-02-26T06:36:30.479Z,21.77
2019-02-26T06:39:06.324Z,26.17
2019-02-26T06:41:40.130Z,25.33
2019-02-26T06:44:17.856Z,21.67
2019-02-26T06:46:51.870Z,23.33
2019-02-26T06:49:31.082Z,26.57
2019-02-26T06:52:06.491Z,25.17
2019-02-26T06:54:41.802Z,24.60
2019-02-26T06:57:20.123Z,34.63
2019-02-26T06:59:53.682Z,27.53
2019-02-26T07:02:28.464Z,27.83
2019-02-26T07:04:59.237Z,30.77
2019-02-26T07:07:31.067Z,35.67
2019-02-26T07:10:05.019Z,28.10
2019-02-26T07:12:38.772Z,28.20
2019-02-26T07:15:12.243Z,28.97
2019-02-26T07:17:49.634Z,32.63
2019-02-26T07:20:21.399Z,24.03
2019-02-26T07:22:56.639Z,32.00
2019-02-26T07:25:48.772Z,25.03
2019-02-26T07:28:34.272Z,27.20
2019-02-26T07:31:07.939Z,23.13
2019-02-26T07:33:42.357Z,29.57
2019-02-26T07:36:16.153Z,29.97
2019-02-26T07:38:52.000Z,31.67
2019-02-26T07:41:26.091Z,35.50
2019-02-26T07:44:18.108Z,22.97
2019-02-26T07:46:55.219Z,28.03
2019-02-26T07:49:28.453Z,25.08
2019-02-26T07:52:24.225Z,30.17
2019-02-26T07:55:21.335Z,24.75
2019-02-26T07:58:09.175Z,31.20
2019-02-26T08:00:52.252Z,31.52
2019-02-26T08:04:08.590Z,35.25
2019-02-26T08:06:44.331Z,45.25
2019-02-26T08:09:18.935Z,35.70
2019-02-26T08:11:51.127Z,30.05
2019-02-26T08:14:47.316Z,48.13
2019-02-26T08:20:21.115Z,39.25
2019-02-26T08:23:23.800Z,42.50
2019-02-26T08:26:30.596Z,42.13
2019-02-26T08:29:13.449Z,34.10
2019-02-26T08:31:55.050Z,48.45
2019-02-26T08:34:39.722Z,27.30
2019-02-26T08:37:34.858Z,33.75
2019-02-26T08:40:17.573Z,30.92
2019-02-26T08:42:57.742Z,29.75
2019-02-26T08:45:50.885Z,26.02
2019-02-26T08:48:56.425Z,28.35
2019-02-26T08:53:51.991Z,26.85
2019-02-26T08:55:45.145Z,28.83
2019-02-26T08:58:29.839Z,32.80
2019-02-26T09:01:09.874Z,31.57
2019-02-26T09:03:52.901Z,28.25
2019-02-26T09:06:28.295Z,29.87
2019-02-26T09:09:02.705Z,37.08
2019-02-26T09:11:38.811Z,26.27
2019-02-26T09:14:14.243Z,29.20
2019-02-26T09:20:22.352Z,30.37
2019-02-26T09:23:36.779Z,21.35
2019-02-26T09:26:19.643Z,26.50
2019-02-26T09:28:52.379Z,33.78
2019-02-26T09:31:36.106Z,21.97
2019-02-26T09:34:13.825Z,21.23
2019-02-26T09:37:36.778Z,22.20
2019-02-26T09:40:20.276Z,26.97
2019-02-26T09:43:07.636Z,28.77
2019-02-26T09:45:50.066Z,21.87
2019-02-26T09:48:41.114Z,23.85
2019-02-26T09:51:21.344Z,29.65
2019-02-26T09:54:03.350Z,33.42
2019-02-26T09:56:44.871Z,29.45
2019-02-26T09:59:13.026Z,29.07
2019-02-26T10:01:45.407Z,24.18
2019-02-26T10:04:19.176Z,22.10
2019-02-26T10:06:50.842Z,18.62
2019-02-26T10:09:22.726Z,20.83
2019-02-26T10:11:54.568Z,14.63
2019-02-26T10:14:30.612Z,21.82
2019-02-26T10:17:02.355Z,19.67
2019-02-26T10:19:35.713Z,17.98
2019-02-26T10:22:13.483Z,19.70
2019-02-26T10:24:47.658Z,13.98
2019-02-26T10:27:33.622Z,18.75
2019-02-26T10:30:10.595Z,23.80
2019-02-26T10:32:44.080Z,23.27
2019-02-26T10:35:19.512Z,20.85
2019-02-26T10:37:54.256Z,18.55
2019-02-26T10:40:34.799Z,13.43
2019-02-26T10:42:59.616Z,14.83
2019-02-26T10:45:36.042Z,11.00
2019-02-26T10:48:05.068Z,11.33
2019-02-26T10:50:39.304Z,12.93
2019-02-26T10:53:19.667Z,13.73
2019-02-26T10:56:00.291Z,9.70
2019-02-26T10:59:23.645Z,19.04
2019-02-26T11:02:38.136Z,14.60
2019-02-26T11:05:21.423Z,10.75
2019-02-26T11:07:55.745Z,14.18
2019-02-26T11:10:27.359Z,14.23
2019-02-26T11:12:59.790Z,11.83
2019-02-26T11:15:36.073Z,13.08
2019-02-26T11:18:08.995Z,9.90
2019-02-26T11:20:41.780Z,18.02
2019-02-26T11:23:14.288Z,9.13
2019-02-26T11:25:47.179Z,14.18
2019-02-26T11:28:19.027Z,10.00
2019-02-26T11:30:52.150Z,11.18
2019-02-26T11:33:24.674Z,16.12
2019-02-26T11:35:59.643Z,9.00
2019-02-26T11:38:31.448Z,9.73
2019-02-26T11:41:03.555Z,8.95
2019-02-26T11:43:35.287Z,10.95
2019-02-26T11:46:08.748Z,10.38
2019-02-26T11:48:40.681Z,9.93
2019-02-26T11:51:16.811Z,7.67
2019-02-26T11:53:46.320Z,10.32
2019-02-26T11:56:20.745Z,9.30
2019-02-26T11:58:51.595Z,7.12
2019-02-26T12:01:23.590Z,8.83
2019-02-26T12:04:04.100Z,8.55
2019-02-26T12:06:34.203Z,11.68
2019-02-26T12:09:10.924Z,7.22
2019-02-26T12:11:52.029Z,9.38
2019-02-26T12:14:23.960Z,9.50
2019-02-26T12:16:56.205Z,6.85
2019-02-26T12:19:28.991Z,11.35
2019-02-26T12:22:03.577Z,9.23
2019-02-26T12:24:36.157Z,10.35
2019-02-26T12:27:09.788Z,8.75
2019-02-26T12:29:43.678Z,8.03
2019-02-26T12:32:17.136Z,8.35
2019-02-26T12:34:54.522Z,14.40
2019-02-26T12:37:28.283Z,13.68
2019-02-26T12:40:02.646Z,6.95
2019-02-26T12:42:38.454Z,9.63
2019-02-26T12:45:13.654Z,6.72
2019-02-26T12:47:55.094Z,6.65
2019-02-26T12:50:32.261Z,7.80
2019-02-26T12:53:05.187Z,7.72
2019-02-26T12:59:38.771Z,7.05
2019-02-26T13:09:29.564Z,7.95
2019-02-26T13:12:02.873Z,4.35
2019-02-26T13:14:34.726Z,7.25
2019-02-26T13:17:06.431Z,8.23
2019-02-26T13:19:38.182Z,4.70
2019-02-26T13:22:16.877Z,5.12
2019-02-26T13:24:43.314Z,5.12
2019-02-26T13:27:14.984Z,6.05
2019-02-26T13:29:53.444Z,4.28
2019-02-26T13:32:21.303Z,4.03
2019-02-26T13:34:58.888Z,7.97
2019-02-26T13:37:31.494Z,7.05
2019-02-26T13:40:00.561Z,3.52
2019-02-26T13:42:32.720Z,5.22
2019-02-26T13:45:05.039Z,6.85
2019-02-26T13:47:36.726Z,5.20
2019-02-26T13:50:10.681Z,6.17
2019-02-26T13:52:42.401Z,6.45
2019-02-26T13:55:14.137Z,8.60
2019-02-26T13:57:46.385Z,4.58
2019-02-26T14:00:25.941Z,5.80
2019-02-26T14:02:53.494Z,5.97
2019-02-26T14:05:25.293Z,5.65
2019-02-26T14:07:56.947Z,5.45
2019-02-26T14:10:28.661Z,10.00
2019-02-26T14:13:00.397Z,4.00
2019-02-26T14:15:32.130Z,6.83
2019-02-26T14:18:04.217Z,5.65
2019-02-26T14:20:35.911Z,8.05
2019-02-26T14:23:07.721Z,4.90
2019-02-26T14:25:39.766Z,8.55
2019-02-26T14:28:11.558Z,7.75
2019-02-26T14:30:43.433Z,6.33
2019-02-26T14:33:15.489Z,9.15
2019-02-26T14:35:47.156Z,6.80
2019-02-26T14:38:18.955Z,5.22
2019-02-26T14:40:50.643Z,7.22
2019-02-26T14:43:22.418Z,10.13
2019-02-26T14:45:54.099Z,7.97
2019-02-26T14:48:25.989Z,5.97
2019-02-26T14:50:57.897Z,7.12
2019-02-26T14:53:29.701Z,7.95
2019-02-26T14:56:01.568Z,8.58
2019-02-26T14:58:33.306Z,7.62
2019-02-26T15:01:05.227Z,10.05
2019-02-26T15:03:37.006Z,9.08
2019-02-26T15:06:08.786Z,8.80
2019-02-26T15:08:41.338Z,11.33
2019-02-26T15:11:13.145Z,12.10
2019-02-26T15:13:44.838Z,9.50
2019-02-26T15:16:19.254Z,12.13
2019-02-26T15:18:50.074Z,10.95
2019-02-26T15:21:21.837Z,12.13
2019-02-26T15:23:53.699Z,10.50
2019-02-26T15:26:25.353Z,8.65
2019-02-26T15:28:57.028Z,8.45
2019-02-26T15:31:28.681Z,7.33
2019-02-26T15:34:00.455Z,7.85
2019-02-26T15:36:32.259Z,10.32
2019-02-26T15:39:04.875Z,14.93
2019-02-26T15:41:37.883Z,10.38
2019-02-26T15:44:09.624Z,11.38
2019-02-26T15:46:41.279Z,8.50
2019-02-26T15:49:12.931Z,13.75
2019-02-26T15:51:44.590Z,10.03
2019-02-26T15:54:16.278Z,12.37
2019-02-26T15:56:47.934Z,9.18
2019-02-26T15:59:19.711Z,9.90
2019-02-26T16:01:55.295Z,8.50
2019-02-26T16:04:24.887Z,11.97
2019-02-26T16:06:56.541Z,8.18
2019-02-26T16:09:28.234Z,8.20
2019-02-26T16:11:59.901Z,7.22
2019-02-26T16:14:31.598Z,7.45
2019-02-26T16:17:03.280Z,13.25
2019-02-26T16:19:35.049Z,8.98
2019-02-26T16:22:06.832Z,10.10
2019-02-26T16:24:38.671Z,7.20
2019-02-26T16:27:10.468Z,10.53
2019-02-26T16:29:42.216Z,8.28
2019-02-26T16:32:13.968Z,12.00
2019-02-26T16:34:45.745Z,7.85
2019-02-26T16:37:17.533Z,11.70
2019-02-26T16:39:49.334Z,8.33
2019-02-26T16:42:21.041Z,8.83
2019-02-26T16:44:52.744Z,13.18
2019-02-26T16:47:24.536Z,12.75
2019-02-26T16:49:58.620Z,11.75
2019-02-26T16:52:30.132Z,9.73
2019-02-26T16:55:01.945Z,15.20
2019-02-26T16:57:33.604Z,11.18
2019-02-26T17:00:05.936Z,14.90
2019-02-26T17:02:37.804Z,9.88
2019-02-26T17:05:14.298Z,9.23
2019-02-26T17:07:43.815Z,11.28
2019-02-26T17:10:17.548Z,14.15
2019-02-26T17:12:54.008Z,13.00
2019-02-26T17:15:27.450Z,14.07
2019-02-26T17:17:59.358Z,15.13
2019-02-26T17:20:31.040Z,14.40
2019-02-26T17:23:02.849Z,13.55
2019-02-26T17:25:34.627Z,17.95
2019-02-26T17:28:06.394Z,15.13
2019-02-26T17:30:38.566Z,14.98
2019-02-26T17:33:13.185Z,16.25
2019-02-26T17:35:43.742Z,14.47
2019-02-26T17:38:17.545Z,12.33
2019-02-26T17:40:48.966Z,12.65
2019-02-26T17:43:22.863Z,15.25
2019-02-26T17:45:54.024Z,20.92
2019-02-26T17:48:25.810Z,14.50
2019-02-26T17:50:57.983Z,20.40
2019-02-26T17:53:29.666Z,15.83
2019-02-26T17:56:01.518Z,16.82
2019-02-26T17:58:33.285Z,17.37
2019-02-26T18:01:05.358Z,20.72
2019-02-26T18:03:37.108Z,21.57
2019-02-26T18:06:10.684Z,14.90
2019-02-26T18:08:42.279Z,19.82
2019-02-26T18:11:14.066Z,13.62
2019-02-26T18:13:45.790Z,22.42
2019-02-26T18:16:17.566Z,15.80
2019-02-26T18:18:49.333Z,17.77
2019-02-26T18:21:21.081Z,21.02
2019-02-26T18:23:52.799Z,21.40
2019-02-26T18:26:24.499Z,16.30
2019-02-26T18:28:56.373Z,18.65
2019-02-26T18:31:30.992Z,17.02
2019-02-26T18:34:02.385Z,22.32
2019-02-26T18:36:34.231Z,24.20
2019-02-26T18:39:07.025Z,28.25
2019-02-26T18:41:38.745Z,29.12
2019-02-26T18:44:10.513Z,19.67
2019-02-26T18:46:42.373Z,23.42
2019-02-26T18:49:14.164Z,28.35
2019-02-26T18:51:45.948Z,23.12
2019-02-26T18:54:20.086Z,21.50
2019-02-26T18:56:51.168Z,27.02
2019-02-26T18:59:22.901Z,28.80
2019-02-26T19:01:54.591Z,22.60
2019-02-26T19:04:26.317Z,21.90
2019-02-26T19:06:59.751Z,26.10
2019-02-26T19:09:31.578Z,24.55
2019-02-26T19:12:03.428Z,25.37
2019-02-26T19:14:35.239Z,20.53
2019-02-26T19:17:06.943Z,23.47
2019-02-26T19:19:39.754Z,23.10
2019-02-26T19:22:12.136Z,29.85
2019-02-26T19:24:43.922Z,23.07
2019-02-26T19:27:19.124Z,22.87
2019-02-26T19:29:49.114Z,20.80
2019-02-26T19:32:20.815Z,33.80
2019-02-26T19:34:52.884Z,23.42
2019-02-26T19:37:24.638Z,21.70
2019-02-26T19:39:56.324Z,25.93
2019-02-26T19:42:28.039Z,29.00
2019-02-26T19:44:59.808Z,19.97
2019-02-26T19:47:31.557Z,28.67
2019-02-26T19:50:03.282Z,24.53
2019-02-26T19:52:36.110Z,26.00
2019-02-26T19:55:12.911Z,34.90
2019-02-26T19:57:44.728Z,24.90
2019-02-26T20:00:19.657Z,32.70
2019-02-26T20:02:49.963Z,29.63
2019-02-26T20:05:21.747Z,28.43
2019-02-26T20:07:53.624Z,31.90
2019-02-26T20:10:25.384Z,28.42
2019-02-26T20:13:00.586Z,27.03
2019-02-26T20:15:30.635Z,28.60
2019-02-26T20:18:05.460Z,28.80
2019-02-26T20:20:40.954Z,31.00
2019-02-26T20:23:10.625Z,29.93
2019-02-26T20:25:59.144Z,33.07
2019-02-26T20:28:47.434Z,31.07
2019-02-26T20:31:34.930Z,26.47
2019-02-26T20:34:23.120Z,27.40
2019-02-26T20:37:11.399Z,38.57
2019-02-26T20:39:59.648Z,31.67
2019-02-26T20:42:47.793Z,31.37
2019-02-26T20:45:35.636Z,31.47
2019-02-26T20:48:23.226Z,31.27
2019-02-26T20:51:11.523Z,29.83
2019-02-26T20:53:59.606Z,31.40
2019-02-26T20:56:47.535Z,26.17
2019-02-26T20:59:35.513Z,28.30
2019-02-26T21:02:23.845Z,28.87
2019-02-26T21:05:12.495Z,35.70
2019-02-26T21:08:00.922Z,31.23
2019-02-26T21:10:48.729Z,25.80
2019-02-26T21:13:37.044Z,24.90
2019-02-26T21:16:24.985Z,26.20
2019-02-26T21:19:13.255Z,25.50
2019-02-26T21:22:01.272Z,28.83
2019-02-26T21:24:49.644Z,25.13
2019-02-26T21:27:37.767Z,27.37
2019-02-26T21:30:12.546Z,30.27
2019-02-26T21:32:44.658Z,27.50
2019-02-26T21:35:19.894Z,28.03
2019-02-26T21:37:49.748Z,26.30
2019-02-26T21:40:21.435Z,22.47
2019-02-26T21:42:53.127Z,25.83
2019-02-26T21:45:24.819Z,34.00
2019-02-26T21:47:56.595Z,30.07
2019-02-26T21:50:28.303Z,28.90
2019-02-26T21:53:00.131Z,28.10
2019-02-26T21:55:40.651Z,27.17
2019-02-26T21:58:05.422Z,26.90
2019-02-26T22:00:39.135Z,28.80
2019-02-26T22:03:11.591Z,25.83
2019-02-26T22:05:43.320Z,22.27
2019-02-26T22:08:15.094Z,26.03
2019-02-26T22:10:46.797Z,29.43
2019-02-26T22:13:18.471Z,27.80
2019-02-26T22:15:50.267Z,30.53
2019-02-26T22:18:21.965Z,22.57
2019-02-26T22:20:53.759Z,28.73
2019-02-26T22:23:25.437Z,28.63
2019-02-26T22:25:57.355Z,27.97
2019-02-26T22:28:29.033Z,26.40
2019-02-26T22:31:00.728Z,30.13
2019-02-26T22:33:32.400Z,27.57
2019-02-26T22:36:04.105Z,32.77
2019-02-26T22:38:35.884Z,29.60
2019-02-26T22:41:07.642Z,25.50
2019-02-26T22:43:39.372Z,23.37
2019-02-26T22:46:11.070Z,27.53
2019-02-26T22:48:44.602Z,28.80
2019-02-26T22:51:16.228Z,25.13
2019-02-26T22:53:47.939Z,31.77
2019-02-26T22:56:21.954Z,30.90
2019-02-26T22:58:53.061Z,25.27
2019-02-26T23:01:43.532Z,25.00
2019-02-26T23:04:19.274Z,29.30
2019-02-26T23:06:48.820Z,20.87
2019-02-26T23:09:23.673Z,27.70
2019-02-26T23:11:55.366Z,27.60
2019-02-26T23:14:27.715Z,25.20
2019-02-26T23:16:59.722Z,28.80
2019-02-26T23:19:31.453Z,33.00
2019-02-26T23:22:03.161Z,24.57
2019-02-26T23:24:35.288Z,33.50
2019-02-26T23:27:07.968Z,22.17
2019-02-26T23:29:43.188Z,22.90
2019-02-26T23:32:15.004Z,23.13
2019-02-26T23:35:02.929Z,25.53
2019-02-26T23:37:35.299Z,26.63
2019-02-26T23:40:08.690Z,27.23
2019-02-26T23:42:40.430Z,28.57
2019-02-26T23:45:12.704Z,28.07
2019-02-26T23:47:44.472Z,30.33
2019-02-26T23:50:16.526Z,23.43
2019-02-26T23:52:48.464Z,23.80
2019-02-26T23:55:20.220Z,22.47
2019-02-26T23:57:51.904Z,32.83
